sensor_id;sensor_type;location;lat;lon;timestamp;pressure;altitude;pressure_sealevel;temperature;humidity
61710;BME280;47633;51.494;5.386;2023-04-27T00:02:07;101979.06;;;18.68;35.49
61710;BME280;47633;51.494;5.386;2023-04-27T00:04:32;101976.59;;;18.65;35.51
61710;BME280;47633;51.494;5.386;2023-04-27T00:06:58;101978.41;;;18.65;35.27
61710;BME280;47633;51.494;5.386;2023-04-27T00:09:23;101980.22;;;18.64;35.48
61710;BME280;47633;51.494;5.386;2023-04-27T00:11:48;101986.34;;;18.65;35.40
61710;BME280;47633;51.494;5.386;2023-04-27T00:14:13;101983.69;;;18.65;35.38
61710;BME280;47633;51.494;5.386;2023-04-27T00:16:39;101982.09;;;18.62;35.29
61710;BME280;47633;51.494;5.386;2023-04-27T00:19:04;101987.38;;;18.62;35.42
61710;BME280;47633;51.494;5.386;2023-04-27T00:21:29;101984.00;;;18.60;35.59
61710;BME280;47633;51.494;5.386;2023-04-27T00:23:55;101991.81;;;18.62;35.50
61710;BME280;47633;51.494;5.386;2023-04-27T00:26:21;101985.91;;;18.58;35.38
61710;BME280;47633;51.494;5.386;2023-04-27T00:28:46;101985.69;;;18.61;35.29
61710;BME280;47633;51.494;5.386;2023-04-27T00:31:12;101989.38;;;18.59;35.42
61710;BME280;47633;51.494;5.386;2023-04-27T00:33:37;101986.94;;;18.56;35.40
61710;BME280;47633;51.494;5.386;2023-04-27T00:36:02;101984.38;;;18.54;35.46
61710;BME280;47633;51.494;5.386;2023-04-27T00:38:29;101975.63;;;18.54;35.54
61710;BME280;47633;51.494;5.386;2023-04-27T00:41:04;101984.50;;;18.53;35.46
61710;BME280;47633;51.494;5.386;2023-04-27T00:43:30;101980.13;;;18.52;35.37
61710;BME280;47633;51.494;5.386;2023-04-27T00:45:56;101984.38;;;18.54;35.77
61710;BME280;47633;51.494;5.386;2023-04-27T00:48:22;101984.59;;;18.51;35.15
61710;BME280;47633;51.494;5.386;2023-04-27T00:50:48;101983.66;;;18.52;35.06
61710;BME280;47633;51.494;5.386;2023-04-27T00:53:14;101980.28;;;18.50;35.28
61710;BME280;47633;51.494;5.386;2023-04-27T00:55:40;101977.63;;;18.50;35.42
61710;BME280;47633;51.494;5.386;2023-04-27T00:58:05;101981.22;;;18.49;35.32
61710;BME280;47633;51.494;5.386;2023-04-27T01:00:30;101987.31;;;18.49;35.17
61710;BME280;47633;51.494;5.386;2023-04-27T01:02:56;101984.69;;;18.49;35.28
61710;BME280;47633;51.494;5.386;2023-04-27T01:05:23;101974.31;;;18.46;35.36
61710;BME280;47633;51.494;5.386;2023-04-27T01:07:49;101982.91;;;18.50;35.33
61710;BME280;47633;51.494;5.386;2023-04-27T01:10:14;101970.75;;;18.47;34.94
61710;BME280;47633;51.494;5.386;2023-04-27T01:12:40;101980.47;;;18.47;35.56
61710;BME280;47633;51.494;5.386;2023-04-27T01:15:05;101978.66;;;18.47;35.49
61710;BME280;47633;51.494;5.386;2023-04-27T01:17:31;101978.75;;;18.46;35.45
61710;BME280;47633;51.494;5.386;2023-04-27T01:19:56;101982.34;;;18.45;35.24
61710;BME280;47633;51.494;5.386;2023-04-27T01:22:23;101981.69;;;18.41;35.26
61710;BME280;47633;51.494;5.386;2023-04-27T01:24:49;101986.88;;;18.43;35.00
61710;BME280;47633;51.494;5.386;2023-04-27T01:27:14;101986.88;;;18.43;34.97
61710;BME280;47633;51.494;5.386;2023-04-27T01:29:39;101988.69;;;18.42;34.90
61710;BME280;47633;51.494;5.386;2023-04-27T01:32:04;101990.44;;;18.42;34.86
61710;BME280;47633;51.494;5.386;2023-04-27T01:34:30;101987.91;;;18.40;34.85
61710;BME280;47633;51.494;5.386;2023-04-27T01:36:56;101979.25;;;18.38;35.06
61710;BME280;47633;51.494;5.386;2023-04-27T01:39:21;101980.97;;;18.39;34.95
61710;BME280;47633;51.494;5.386;2023-04-27T01:41:46;101973.34;;;18.35;34.92
61710;BME280;47633;51.494;5.386;2023-04-27T01:44:12;101978.50;;;18.36;34.81
61710;BME280;47633;51.494;5.386;2023-04-27T01:46:37;101981.16;;;18.36;35.17
61710;BME280;47633;51.494;5.386;2023-04-27T01:49:02;101983.06;;;18.34;34.90
61710;BME280;47633;51.494;5.386;2023-04-27T01:51:27;101979.56;;;18.34;35.08
61710;BME280;47633;51.494;5.386;2023-04-27T01:53:53;101970.06;;;18.31;34.69
61710;BME280;47633;51.494;5.386;2023-04-27T01:56:18;101971.81;;;18.30;34.97
61710;BME280;47633;51.494;5.386;2023-04-27T01:58:43;101967.41;;;18.31;34.74
61710;BME280;47633;51.494;5.386;2023-04-27T02:01:09;101968.25;;;18.31;35.06
61710;BME280;47633;51.494;5.386;2023-04-27T02:03:34;101971.00;;;18.30;34.88
61710;BME280;47633;51.494;5.386;2023-04-27T02:06:00;101971.00;;;18.30;35.26
61710;BME280;47633;51.494;5.386;2023-04-27T02:08:25;101967.50;;;18.29;35.06
61710;BME280;47633;51.494;5.386;2023-04-27T02:10:50;101962.25;;;18.29;35.03
61710;BME280;47633;51.494;5.386;2023-04-27T02:13:16;101964.00;;;18.29;34.96
61710;BME280;47633;51.494;5.386;2023-04-27T02:15:41;101964.00;;;18.29;35.07
61710;BME280;47633;51.494;5.386;2023-04-27T02:18:07;101969.28;;;18.29;34.97
61710;BME280;47633;51.494;5.386;2023-04-27T02:20:32;101956.28;;;18.26;34.86
61710;BME280;47633;51.494;5.386;2023-04-27T02:22:58;101957.91;;;18.28;34.84
61710;BME280;47633;51.494;5.386;2023-04-27T02:25:23;101958.09;;;18.25;34.85
61710;BME280;47633;51.494;5.386;2023-04-27T02:27:48;101953.75;;;18.24;34.94
61710;BME280;47633;51.494;5.386;2023-04-27T02:30:14;101947.53;;;18.25;34.64
61710;BME280;47633;51.494;5.386;2023-04-27T02:32:40;101947.72;;;18.22;34.93
61710;BME280;47633;51.494;5.386;2023-04-27T02:35:06;101952.16;;;18.22;34.68
61710;BME280;47633;51.494;5.386;2023-04-27T02:37:32;101945.19;;;18.21;34.71
61710;BME280;47633;51.494;5.386;2023-04-27T02:39:58;101949.53;;;18.22;34.93
61710;BME280;47633;51.494;5.386;2023-04-27T02:42:23;101942.53;;;18.21;34.69
61710;BME280;47633;51.494;5.386;2023-04-27T02:44:48;101947.81;;;18.21;34.88
61710;BME280;47633;51.494;5.386;2023-04-27T02:47:14;101947.94;;;18.19;34.84
61710;BME280;47633;51.494;5.386;2023-04-27T02:49:39;101949.53;;;18.22;34.78
61710;BME280;47633;51.494;5.386;2023-04-27T02:52:05;101955.00;;;18.19;34.97
61710;BME280;47633;51.494;5.386;2023-04-27T02:54:30;101947.19;;;18.17;34.72
61710;BME280;47633;51.494;5.386;2023-04-27T02:56:56;101950.75;;;18.16;34.76
61710;BME280;47633;51.494;5.386;2023-04-27T02:59:21;101951.50;;;18.18;34.86
61710;BME280;47633;51.494;5.386;2023-04-27T03:01:47;101952.38;;;18.19;34.60
61710;BME280;47633;51.494;5.386;2023-04-27T03:04:12;101946.34;;;18.17;34.62
61710;BME280;47633;51.494;5.386;2023-04-27T03:06:38;101942.84;;;18.16;34.67
61710;BME280;47633;51.494;5.386;2023-04-27T03:09:03;101946.34;;;18.17;34.49
61710;BME280;47633;51.494;5.386;2023-04-27T03:11:29;101937.66;;;18.15;34.38
61710;BME280;47633;51.494;5.386;2023-04-27T03:13:54;101942.09;;;18.14;34.79
61710;BME280;47633;51.494;5.386;2023-04-27T03:16:20;101940.41;;;18.13;34.46
61710;BME280;47633;51.494;5.386;2023-04-27T03:18:45;101951.81;;;18.13;34.30
61710;BME280;47633;51.494;5.386;2023-04-27T03:21:11;101948.31;;;18.13;34.32
61710;BME280;47633;51.494;5.386;2023-04-27T03:23:38;101952.75;;;18.12;34.48
61710;BME280;47633;51.494;5.386;2023-04-27T03:28:32;101952.09;;;18.09;34.47
61710;BME280;47633;51.494;5.386;2023-04-27T03:30:57;101950.41;;;18.08;34.72
61710;BME280;47633;51.494;5.386;2023-04-27T03:33:23;101947.88;;;18.06;34.63
61710;BME280;47633;51.494;5.386;2023-04-27T03:35:55;101957.69;;;18.04;34.59
61710;BME280;47633;51.494;5.386;2023-04-27T03:38:21;101961.88;;;18.07;34.71
61710;BME280;47633;51.494;5.386;2023-04-27T03:40:46;101963.78;;;18.05;34.45
61710;BME280;47633;51.494;5.386;2023-04-27T03:43:11;101962.84;;;18.06;34.77
61710;BME280;47633;51.494;5.386;2023-04-27T03:45:36;101963.69;;;18.06;34.39
61710;BME280;47633;51.494;5.386;2023-04-27T03:48:02;101964.72;;;18.04;34.49
61710;BME280;47633;51.494;5.386;2023-04-27T03:50:27;101964.81;;;18.02;34.32
61710;BME280;47633;51.494;5.386;2023-04-27T03:52:53;101955.41;;;17.98;34.39
61710;BME280;47633;51.494;5.386;2023-04-27T03:55:18;101963.88;;;18.03;34.50
61710;BME280;47633;51.494;5.386;2023-04-27T03:57:43;101965.69;;;18.03;34.19
61710;BME280;47633;51.494;5.386;2023-04-27T04:00:09;101964.06;;;18.00;34.45
61710;BME280;47633;51.494;5.386;2023-04-27T04:02:36;101970.09;;;18.02;34.48
61710;BME280;47633;51.494;5.386;2023-04-27T04:05:02;101960.59;;;18.00;34.18
61710;BME280;47633;51.494;5.386;2023-04-27T04:07:27;101970.19;;;18.01;34.48
61710;BME280;47633;51.494;5.386;2023-04-27T04:09:52;101964.06;;;18.00;34.56
61710;BME280;47633;51.494;5.386;2023-04-27T04:12:17;101962.41;;;17.99;34.58
61710;BME280;47633;51.494;5.386;2023-04-27T04:14:43;101963.25;;;18.00;33.93
61710;BME280;47633;51.494;5.386;2023-04-27T04:17:08;101963.44;;;17.97;34.59
61710;BME280;47633;51.494;5.386;2023-04-27T04:19:35;101971.44;;;17.95;34.26
61710;BME280;47633;51.494;5.386;2023-04-27T04:22:00;101975.69;;;17.98;34.28
61710;BME280;47633;51.494;5.386;2023-04-27T04:24:25;101974.91;;;17.95;34.37
61710;BME280;47633;51.494;5.386;2023-04-27T04:26:50;101979.25;;;17.97;34.10
61710;BME280;47633;51.494;5.386;2023-04-27T04:29:16;101981.88;;;17.97;34.21
61710;BME280;47633;51.494;5.386;2023-04-27T04:31:41;101982.81;;;17.95;34.33
61710;BME280;47633;51.494;5.386;2023-04-27T04:34:06;101979.44;;;17.93;34.31
61710;BME280;47633;51.494;5.386;2023-04-27T04:36:32;101981.16;;;17.94;34.29
61710;BME280;47633;51.494;5.386;2023-04-27T04:38:57;101983.00;;;17.92;34.24
61710;BME280;47633;51.494;5.386;2023-04-27T04:41:23;101998.75;;;17.94;34.43
61710;BME280;47633;51.494;5.386;2023-04-27T04:43:48;101992.81;;;17.90;34.32
61710;BME280;47633;51.494;5.386;2023-04-27T04:46:14;101997.16;;;17.91;34.20
61710;BME280;47633;51.494;5.386;2023-04-27T04:48:39;101994.72;;;17.88;34.42
61710;BME280;47633;51.494;5.386;2023-04-27T04:51:05;101988.72;;;17.85;34.55
61710;BME280;47633;51.494;5.386;2023-04-27T04:53:31;101993.75;;;17.89;35.29
61710;BME280;47633;51.494;5.386;2023-04-27T04:55:56;101993.56;;;17.92;35.28
61710;BME280;47633;51.494;5.386;2023-04-27T04:58:21;101990.75;;;17.95;35.07
61710;BME280;47633;51.494;5.386;2023-04-27T05:00:47;101998.38;;;18.00;35.08
61710;BME280;47633;51.494;5.386;2023-04-27T05:03:12;101998.91;;;18.05;35.42
61710;BME280;47633;51.494;5.386;2023-04-27T05:05:37;102000.34;;;18.11;35.06
61710;BME280;47633;51.494;5.386;2023-04-27T05:08:02;101998.25;;;18.16;35.12
61710;BME280;47633;51.494;5.386;2023-04-27T05:10:28;101998.06;;;18.19;34.94
61710;BME280;47633;51.494;5.386;2023-04-27T05:12:53;102008.22;;;18.25;34.87
61710;BME280;47633;51.494;5.386;2023-04-27T05:15:18;102002.84;;;18.27;34.85
61710;BME280;47633;51.494;5.386;2023-04-27T05:17:44;101997.38;;;18.30;34.84
61710;BME280;47633;51.494;5.386;2023-04-27T05:20:09;102003.41;;;18.32;34.74
61710;BME280;47633;51.494;5.386;2023-04-27T05:22:35;102007.53;;;18.36;34.56
61710;BME280;47633;51.494;5.386;2023-04-27T05:25:01;102011.88;;;18.37;34.73
61710;BME280;47633;51.494;5.386;2023-04-27T05:27:27;102014.41;;;18.39;34.79
61710;BME280;47633;51.494;5.386;2023-04-27T05:29:52;102011.56;;;18.42;34.67
61710;BME280;47633;51.494;5.386;2023-04-27T05:32:17;102011.38;;;18.45;34.59
61710;BME280;47633;51.494;5.386;2023-04-27T05:34:42;102009.50;;;18.47;34.77
61710;BME280;47633;51.494;5.386;2023-04-27T05:37:08;102012.97;;;18.47;34.77
61710;BME280;47633;51.494;5.386;2023-04-27T05:39:34;102017.31;;;18.48;34.59
61710;BME280;47633;51.494;5.386;2023-04-27T05:41:59;102011.81;;;18.52;34.66
61710;BME280;47633;51.494;5.386;2023-04-27T05:44:26;102021.34;;;18.54;34.59
61710;BME280;47633;51.494;5.386;2023-04-27T05:46:53;102022.97;;;18.57;34.44
61710;BME280;47633;51.494;5.386;2023-04-27T05:49:19;102023.78;;;18.57;34.38
61710;BME280;47633;51.494;5.386;2023-04-27T05:51:44;102025.59;;;18.57;34.32
61710;BME280;47633;51.494;5.386;2023-04-27T05:54:10;102022.00;;;18.58;34.50
61710;BME280;47633;51.494;5.386;2023-04-27T05:56:35;102023.69;;;18.59;34.55
61710;BME280;47633;51.494;5.386;2023-04-27T05:59:01;102018.41;;;18.59;34.24
61710;BME280;47633;51.494;5.386;2023-04-27T06:01:27;102019.06;;;18.62;34.74
61710;BME280;47633;51.494;5.386;2023-04-27T06:03:52;102019.91;;;18.63;34.42
61710;BME280;47633;51.494;5.386;2023-04-27T06:06:18;102025.19;;;18.63;34.37
61710;BME280;47633;51.494;5.386;2023-04-27T06:08:43;102025.94;;;18.65;34.42
61710;BME280;47633;51.494;5.386;2023-04-27T06:11:08;102031.88;;;18.68;34.41
61710;BME280;47633;51.494;5.386;2023-04-27T06:13:34;102021.50;;;18.65;34.43
61710;BME280;47633;51.494;5.386;2023-04-27T06:16:00;102023.94;;;18.68;34.52
61710;BME280;47633;51.494;5.386;2023-04-27T06:18:25;102020.25;;;18.71;34.23
61710;BME280;47633;51.494;5.386;2023-04-27T06:20:50;102016.66;;;18.72;34.22
61710;BME280;47633;51.494;5.386;2023-04-27T06:23:16;102012.25;;;18.73;34.33
61710;BME280;47633;51.494;5.386;2023-04-27T06:25:42;102016.47;;;18.75;34.37
61710;BME280;47633;51.494;5.386;2023-04-27T06:28:08;102010.34;;;18.75;34.35
61710;BME280;47633;51.494;5.386;2023-04-27T06:30:33;102015.53;;;18.76;34.41
61710;BME280;47633;51.494;5.386;2023-04-27T06:32:58;102010.34;;;18.75;34.35
61710;BME280;47633;51.494;5.386;2023-04-27T06:35:24;102014.69;;;18.76;34.51
61710;BME280;47633;51.494;5.386;2023-04-27T06:37:49;102015.53;;;18.76;34.78
61710;BME280;47633;51.494;5.386;2023-04-27T06:40:15;102023.25;;;18.79;34.86
61710;BME280;47633;51.494;5.386;2023-04-27T06:42:40;102033.72;;;18.81;35.03
61710;BME280;47633;51.494;5.386;2023-04-27T06:45:06;102022.31;;;18.80;35.08
61710;BME280;47633;51.494;5.386;2023-04-27T06:47:32;102026.63;;;18.81;35.32
61710;BME280;47633;51.494;5.386;2023-04-27T06:49:57;102026.72;;;18.80;35.37
61710;BME280;47633;51.494;5.386;2023-04-27T06:52:22;102022.31;;;18.80;35.37
61710;BME280;47633;51.494;5.386;2023-04-27T06:54:48;102020.50;;;18.81;35.15
61710;BME280;47633;51.494;5.386;2023-04-27T06:57:13;102019.66;;;18.80;35.66
61710;BME280;47633;51.494;5.386;2023-04-27T06:59:38;102026.53;;;18.83;35.33
61710;BME280;47633;51.494;5.386;2023-04-27T07:02:04;102022.09;;;18.83;35.53
61710;BME280;47633;51.494;5.386;2023-04-27T07:04:30;102014.94;;;18.85;35.37
61710;BME280;47633;51.494;5.386;2023-04-27T07:06:55;102016.75;;;18.85;35.37
61710;BME280;47633;51.494;5.386;2023-04-27T07:09:21;102014.13;;;18.85;35.79
61710;BME280;47633;51.494;5.386;2023-04-27T07:11:46;102015.59;;;18.89;35.49
61710;BME280;47633;51.494;5.386;2023-04-27T07:14:11;101998.91;;;18.89;35.42
61710;BME280;47633;51.494;5.386;2023-04-27T07:16:37;102007.47;;;18.92;35.48
61710;BME280;47633;51.494;5.386;2023-04-27T07:19:03;102006.63;;;18.92;35.60
61710;BME280;47633;51.494;5.386;2023-04-27T07:21:28;102011.72;;;18.95;35.41
61710;BME280;47633;51.494;5.386;2023-04-27T07:23:53;102016.78;;;18.98;35.45
61710;BME280;47633;51.494;5.386;2023-04-27T07:26:19;102016.91;;;18.96;35.66
61710;BME280;47633;51.494;5.386;2023-04-27T07:28:45;102010.00;;;18.94;35.75
61710;BME280;47633;51.494;5.386;2023-04-27T07:31:11;102016.78;;;18.98;36.00
61710;BME280;47633;51.494;5.386;2023-04-27T07:33:37;102017.53;;;19.00;36.01
61710;BME280;47633;51.494;5.386;2023-04-27T07:36:02;102018.25;;;19.02;35.67
61710;BME280;47633;51.494;5.386;2023-04-27T07:38:28;102017.53;;;19.00;35.85
61710;BME280;47633;51.494;5.386;2023-04-27T07:40:57;102018.47;;;18.99;35.92
61710;BME280;47633;51.494;5.386;2023-04-27T07:43:22;102014.78;;;19.01;36.02
61710;BME280;47633;51.494;5.386;2023-04-27T07:45:49;102015.63;;;19.02;35.80
61710;BME280;47633;51.494;5.386;2023-04-27T07:48:15;102014.59;;;19.05;35.96
61710;BME280;47633;51.494;5.386;2023-04-27T07:50:40;102008.03;;;19.10;36.02
61710;BME280;47633;51.494;5.386;2023-04-27T07:53:05;102018.38;;;19.13;37.26
61710;BME280;47633;51.494;5.386;2023-04-27T07:55:30;102011.22;;;19.15;37.98
61710;BME280;47633;51.494;5.386;2023-04-27T07:57:56;102004.97;;;19.16;38.76
61710;BME280;47633;51.494;5.386;2023-04-27T08:00:22;102004.88;;;19.18;38.99
61710;BME280;47633;51.494;5.386;2023-04-27T08:02:49;102005.59;;;19.20;39.23
61710;BME280;47633;51.494;5.386;2023-04-27T08:05:14;102005.50;;;19.21;39.37
61710;BME280;47633;51.494;5.386;2023-04-27T08:07:40;102011.75;;;19.20;39.31
61710;BME280;47633;51.494;5.386;2023-04-27T08:10:06;102012.59;;;19.21;39.44
61710;BME280;47633;51.494;5.386;2023-04-27T08:12:32;102005.59;;;19.20;39.31
61710;BME280;47633;51.494;5.386;2023-04-27T08:14:58;102009.84;;;19.23;39.27
61710;BME280;47633;51.494;5.386;2023-04-27T08:17:23;102012.50;;;19.23;39.30
61710;BME280;47633;51.494;5.386;2023-04-27T08:19:48;102015.22;;;19.21;39.23
61710;BME280;47633;51.494;5.386;2023-04-27T08:22:13;102013.44;;;19.21;39.63
61710;BME280;47633;51.494;5.386;2023-04-27T08:24:40;102011.75;;;19.20;39.20
61710;BME280;47633;51.494;5.386;2023-04-27T08:27:05;102003.63;;;19.24;39.17
61710;BME280;47633;51.494;5.386;2023-04-27T08:29:31;101994.81;;;19.23;39.08
61710;BME280;47633;51.494;5.386;2023-04-27T08:31:58;101992.19;;;19.23;39.06
61710;BME280;47633;51.494;5.386;2023-04-27T08:34:24;101972.44;;;19.16;39.03
61710;BME280;47633;51.494;5.386;2023-04-27T08:36:49;101983.41;;;19.23;38.74
61710;BME280;47633;51.494;5.386;2023-04-27T08:39:15;101982.47;;;19.24;38.97
61710;BME280;47633;51.494;5.386;2023-04-27T08:41:42;101979.06;;;19.21;38.60
61710;BME280;47633;51.494;5.386;2023-04-27T08:44:08;101980.25;;;19.17;38.57
61710;BME280;47633;51.494;5.386;2023-04-27T08:46:33;101984.59;;;19.18;38.57
61710;BME280;47633;51.494;5.386;2023-04-27T08:49:00;101982.16;;;19.15;38.51
61710;BME280;47633;51.494;5.386;2023-04-27T08:51:26;101975.06;;;19.16;38.35
61710;BME280;47633;51.494;5.386;2023-04-27T08:53:54;101981.19;;;19.16;38.22
61710;BME280;47633;51.494;5.386;2023-04-27T08:56:21;101987.34;;;19.17;38.27
61710;BME280;47633;51.494;5.386;2023-04-27T08:58:53;101984.59;;;19.18;38.07
61710;BME280;47633;51.494;5.386;2023-04-27T09:01:19;101974.34;;;19.14;38.24
61710;BME280;47633;51.494;5.386;2023-04-27T09:03:46;101980.25;;;19.17;38.37
61710;BME280;47633;51.494;5.386;2023-04-27T09:06:12;101984.59;;;19.18;38.18
61710;BME280;47633;51.494;5.386;2023-04-27T09:08:42;101976.88;;;19.15;38.59
61710;BME280;47633;51.494;5.386;2023-04-27T09:11:08;101980.97;;;19.19;38.30
61710;BME280;47633;51.494;5.386;2023-04-27T09:13:36;101976.53;;;19.20;38.44
61710;BME280;47633;51.494;5.386;2023-04-27T09:16:02;101980.25;;;19.17;38.37
61710;BME280;47633;51.494;5.386;2023-04-27T09:18:27;101982.69;;;19.20;38.45
61710;BME280;47633;51.494;5.386;2023-04-27T09:20:53;101984.47;;;19.20;38.06
61710;BME280;47633;51.494;5.386;2023-04-27T09:23:28;101979.31;;;19.18;38.49
61710;BME280;47633;51.494;5.386;2023-04-27T09:25:55;101971.38;;;19.18;38.14
61710;BME280;47633;51.494;5.386;2023-04-27T09:28:23;101971.47;;;19.17;38.18
61710;BME280;47633;51.494;5.386;2023-04-27T09:30:56;101968.06;;;19.15;38.21
61710;BME280;47633;51.494;5.386;2023-04-27T09:33:27;101974.97;;;19.17;38.31
61710;BME280;47633;51.494;5.386;2023-04-27T09:35:53;101964.28;;;19.19;38.30
61710;BME280;47633;51.494;5.386;2023-04-27T09:38:20;101973.59;;;19.25;38.15
61710;BME280;47633;51.494;5.386;2023-04-27T09:40:47;101957.00;;;19.23;38.19
61710;BME280;47633;51.494;5.386;2023-04-27T09:43:13;101968.53;;;19.34;37.80
61710;BME280;47633;51.494;5.386;2023-04-27T09:45:38;101947.81;;;19.28;37.52
61710;BME280;47633;51.494;5.386;2023-04-27T09:48:05;101967.47;;;19.37;38.05
61710;BME280;47633;51.494;5.386;2023-04-27T09:50:34;101963.66;;;19.28;38.11
61710;BME280;47633;51.494;5.386;2023-04-27T09:53:05;101959.22;;;19.29;38.14
61710;BME280;47633;51.494;5.386;2023-04-27T09:56:10;101965.53;;;19.26;38.30
61710;BME280;47633;51.494;5.386;2023-04-27T09:58:53;101952.44;;;19.25;38.01
61710;BME280;47633;51.494;5.386;2023-04-27T10:01:31;101948.13;;;19.24;37.94
61710;BME280;47633;51.494;5.386;2023-04-27T10:06:59;101943.47;;;19.40;37.70
61710;BME280;47633;51.494;5.386;2023-04-27T10:09:42;101956.16;;;19.35;37.82
61710;BME280;47633;51.494;5.386;2023-04-27T10:14:50;101950.66;;;19.25;38.26
61710;BME280;47633;51.494;5.386;2023-04-27T10:17:16;101948.97;;;19.24;37.96
61710;BME280;47633;51.494;5.386;2023-04-27T10:19:52;101946.53;;;19.21;37.98
61710;BME280;47633;51.494;5.386;2023-04-27T10:22:21;101955.19;;;19.23;37.86
61710;BME280;47633;51.494;5.386;2023-04-27T10:24:50;101953.63;;;19.20;37.86
61710;BME280;47633;51.494;5.386;2023-04-27T10:27:18;101954.66;;;19.18;37.75
61710;BME280;47633;51.494;5.386;2023-04-27T10:29:46;101952.34;;;19.26;37.41
61710;BME280;47633;51.494;5.386;2023-04-27T10:32:23;101958.28;;;19.30;37.42
61710;BME280;47633;51.494;5.386;2023-04-27T10:35:01;101953.81;;;19.30;37.80
61710;BME280;47633;51.494;5.386;2023-04-27T10:37:38;101956.56;;;19.29;38.00
61710;BME280;47633;51.494;5.386;2023-04-27T10:40:10;101955.84;;;19.27;37.78
61710;BME280;47633;51.494;5.386;2023-04-27T10:42:39;101947.16;;;19.25;37.84
61710;BME280;47633;51.494;5.386;2023-04-27T10:45:05;101939.44;;;19.21;38.12
61710;BME280;47633;51.494;5.386;2023-04-27T10:47:39;101940.19;;;19.24;37.91
61710;BME280;47633;51.494;5.386;2023-04-27T10:50:07;101935.63;;;19.26;37.90
61710;BME280;47633;51.494;5.386;2023-04-27T10:52:32;101919.16;;;19.22;37.66
61710;BME280;47633;51.494;5.386;2023-04-27T10:55:04;101925.50;;;19.19;37.76
61710;BME280;47633;51.494;5.386;2023-04-27T10:57:47;101928.13;;;19.19;37.83
61710;BME280;47633;51.494;5.386;2023-04-27T11:00:15;101920.19;;;19.19;37.52
61710;BME280;47633;51.494;5.386;2023-04-27T11:02:41;101917.47;;;19.21;37.59
61710;BME280;47633;51.494;5.386;2023-04-27T11:05:30;101914.19;;;19.17;37.70
61710;BME280;47633;51.494;5.386;2023-04-27T11:08:08;101909.00;;;19.16;37.67
61710;BME280;47633;51.494;5.386;2023-04-27T11:10:34;101905.44;;;19.17;37.68
61710;BME280;47633;51.494;5.386;2023-04-27T11:13:13;101903.09;;;19.12;37.52
61710;BME280;47633;51.494;5.386;2023-04-27T11:15:42;101894.09;;;19.15;37.54
61710;BME280;47633;51.494;5.386;2023-04-27T11:18:08;101899.47;;;19.13;37.54
61710;BME280;47633;51.494;5.386;2023-04-27T11:20:33;101902.22;;;19.12;37.57
61710;BME280;47633;51.494;5.386;2023-04-27T11:22:58;101902.13;;;19.13;37.68
61710;BME280;47633;51.494;5.386;2023-04-27T11:25:29;101903.41;;;19.20;37.49
61710;BME280;47633;51.494;5.386;2023-04-27T11:27:55;101896.09;;;19.24;36.96
61710;BME280;47633;51.494;5.386;2023-04-27T11:30:22;101897.38;;;19.31;36.88
61710;BME280;47633;51.494;5.386;2023-04-27T11:32:48;101889.25;;;19.34;37.28
61710;BME280;47633;51.494;5.386;2023-04-27T11:35:14;101893.16;;;19.29;37.58
61710;BME280;47633;51.494;5.386;2023-04-27T11:37:40;101890.50;;;19.29;37.36
61710;BME280;47633;51.494;5.386;2023-04-27T11:40:06;101886.38;;;19.25;37.47
61710;BME280;47633;51.494;5.386;2023-04-27T11:42:33;101882.78;;;19.26;37.06
61710;BME280;47633;51.494;5.386;2023-04-27T11:45:01;101889.88;;;19.25;37.32
61710;BME280;47633;51.494;5.386;2023-04-27T11:47:28;101880.56;;;19.19;37.20
61710;BME280;47633;51.494;5.386;2023-04-27T11:49:56;101894.63;;;19.20;37.32
61710;BME280;47633;51.494;5.386;2023-04-27T11:52:36;101883.72;;;19.25;37.12
61710;BME280;47633;51.494;5.386;2023-04-27T11:55:02;101881.84;;;19.27;36.92
61710;BME280;47633;51.494;5.386;2023-04-27T11:57:30;101881.19;;;19.23;36.90
61710;BME280;47633;51.494;5.386;2023-04-27T11:59:57;101882.06;;;19.24;37.17
61710;BME280;47633;51.494;5.386;2023-04-27T12:02:28;101879.09;;;19.28;36.71
61710;BME280;47633;51.494;5.386;2023-04-27T12:04:54;101886.59;;;19.34;37.01
61710;BME280;47633;51.494;5.386;2023-04-27T12:07:19;101880.66;;;19.31;36.53
61710;BME280;47633;51.494;5.386;2023-04-27T12:09:45;101869.34;;;19.29;36.74
61710;BME280;47633;51.494;5.386;2023-04-27T12:12:11;101864.06;;;19.29;36.90
61710;BME280;47633;51.494;5.386;2023-04-27T12:14:43;101870.41;;;19.26;37.10
61710;BME280;47633;51.494;5.386;2023-04-27T12:17:08;101872.00;;;19.29;36.99
61710;BME280;47633;51.494;5.386;2023-04-27T12:19:34;101859.84;;;19.26;37.05
61710;BME280;47633;51.494;5.386;2023-04-27T12:22:01;101862.47;;;19.26;37.16
61710;BME280;47633;51.494;5.386;2023-04-27T12:24:26;101861.53;;;19.27;37.10
61710;BME280;47633;51.494;5.386;2023-04-27T12:26:52;101851.81;;;19.28;37.02
61710;BME280;47633;51.494;5.386;2023-04-27T12:29:17;101860.38;;;19.31;36.93
61710;BME280;47633;51.494;5.386;2023-04-27T12:31:43;101868.09;;;19.34;37.11
61710;BME280;47633;51.494;5.386;2023-04-27T12:34:08;101858.34;;;19.35;37.05
61710;BME280;47633;51.494;5.386;2023-04-27T12:36:34;101848.84;;;19.32;37.06
61710;BME280;47633;51.494;5.386;2023-04-27T12:39:12;101853.19;;;19.33;36.95
61710;BME280;47633;51.494;5.386;2023-04-27T12:41:38;101846.09;;;19.34;37.24
61710;BME280;47633;51.494;5.386;2023-04-27T12:44:04;101857.06;;;19.40;36.67
61710;BME280;47633;51.494;5.386;2023-04-27T12:46:29;101857.59;;;19.46;36.94
61710;BME280;47633;51.494;5.386;2023-04-27T12:48:55;101850.19;;;19.51;36.93
61710;BME280;47633;51.494;5.386;2023-04-27T12:51:21;101847.53;;;19.51;36.46
61710;BME280;47633;51.494;5.386;2023-04-27T12:53:47;101846.59;;;19.52;36.38
61710;BME280;47633;51.494;5.386;2023-04-27T12:56:12;101830.94;;;19.49;36.09